Time;durP1;ratioP1;P1;durP2;ratioP2;P2;SDS_P1;SDS_P2;PMS_P1;PMS_P2;Temp;Humidity;BMP_temperature;BMP_pressure;BME280_temperature;BME280_humidity;BME280_pressure;Samples;Min_cycle;Max_cycle;Signal;HPM_P1;HPM_P2
2023/11/08 00:14:30;;;;;;;10.32;2.40;;;;;;;;;;6286463;22;20019;-81
2023/11/08 00:17:44;;;;;;;10.60;2.40;;;;;;;;;;6256943;22;20015;-82
2023/11/08 00:20:34;;;;;;;8.68;2.30;;;;;;;;;;6216064;23;20012;-81
2023/11/08 00:23:03;;;;;;;6.88;2.13;;;;;;;;;;6242589;23;20017;-81
2023/11/08 00:25:34;;;;;;;5.72;2.20;;;;;;;;;;6216815;23;20031;-81
2023/11/08 00:28:04;;;;;;;11.35;2.60;;;;;;;;;;6242782;23;20402;-81
2023/11/08 00:30:34;;;;;;;10.68;2.47;;;;;;;;;;6216332;23;20024;-81
2023/11/08 00:33:04;;;;;;;7.70;2.13;;;;;;;;;;6242468;23;20020;-81
2023/11/08 00:35:34;;;;;;;9.77;2.72;;;;;;;;;;6216491;23;20351;-81
2023/11/08 00:38:05;;;;;;;10.27;2.85;;;;;;;;;;6249185;23;20020;-81
2023/11/08 00:40:36;;;;;;;8.95;2.30;;;;;;;;;;6227922;23;20518;-81
2023/11/08 00:43:06;;;;;;;8.60;2.55;;;;;;;;;;6242751;23;20016;-81
2023/11/08 00:45:36;;;;;;;8.20;2.75;;;;;;;;;;6217933;23;20064;-80
2023/11/08 00:48:06;;;;;;;8.85;2.53;;;;;;;;;;6216989;23;20024;-81
2023/11/08 00:50:37;;;;;;;9.80;2.67;;;;;;;;;;6242883;23;20020;-81
2023/11/08 00:53:10;;;;;;;10.93;3.25;;;;;;;;;;6243117;23;20451;-81
2023/11/08 00:55:41;;;;;;;6.45;2.42;;;;;;;;;;6242036;23;20020;-81
2023/11/08 00:58:12;;;;;;;10.57;2.35;;;;;;;;;;6242448;22;20024;-81
2023/11/08 01:00:42;;;;;;;7.28;2.42;;;;;;;;;;6275768;22;20023;-80
2023/11/08 01:03:12;;;;;;;10.15;2.83;;;;;;;;;;6276685;22;20020;-81
2023/11/08 01:05:44;;;;;;;5.50;2.28;;;;;;;;;;6248369;22;20502;-81
2023/11/08 01:08:16;;;;;;;8.25;2.38;;;;;;;;;;6224448;22;20020;-81
2023/11/08 01:10:46;;;;;;;7.97;2.10;;;;;;;;;;6278397;22;20015;-81
2023/11/08 01:13:17;;;;;;;11.00;2.70;;;;;;;;;;6248351;22;20027;-81
2023/11/08 01:15:48;;;;;;;9.57;2.55;;;;;;;;;;6286121;22;20023;-80
2023/11/08 01:18:18;;;;;;;6.43;2.80;;;;;;;;;;6276716;22;20027;-80
2023/11/08 01:20:49;;;;;;;7.93;2.45;;;;;;;;;;6248152;22;20016;-80
2023/11/08 01:23:19;;;;;;;11.93;3.22;;;;;;;;;;6249213;22;20020;-81
2023/11/08 01:25:49;;;;;;;11.50;2.50;;;;;;;;;;6245936;22;20030;-81
2023/11/08 01:28:21;;;;;;;11.15;3.08;;;;;;;;;;6275254;22;20019;-81
2023/11/08 01:30:51;;;;;;;10.75;2.75;;;;;;;;;;6259672;22;20027;-80
2023/11/08 01:33:22;;;;;;;10.50;3.00;;;;;;;;;;6275313;22;20023;-81
2023/11/08 01:35:52;;;;;;;11.02;3.10;;;;;;;;;;6249155;22;20023;-82
2023/11/08 01:38:22;;;;;;;8.98;3.40;;;;;;;;;;6275369;22;20020;-80
2023/11/08 01:40:52;;;;;;;9.68;2.90;;;;;;;;;;6275629;22;20016;-81
2023/11/08 01:43:33;;;;;;;11.45;3.83;;;;;;;;;;6276062;22;20015;-81
2023/11/08 01:46:12;;;;;;;9.32;3.55;;;;;;;;;;6286237;22;20012;-81
2023/11/08 01:48:43;;;;;;;9.57;3.05;;;;;;;;;;6246939;22;20016;-81
2023/11/08 01:51:15;;;;;;;12.02;3.28;;;;;;;;;;6286448;22;20012;-80
2023/11/08 01:53:46;;;;;;;9.30;3.03;;;;;;;;;;6275560;22;20015;-80
2023/11/08 01:56:18;;;;;;;10.05;2.65;;;;;;;;;;6286341;22;20012;-81
2023/11/08 01:58:56;;;;;;;7.88;2.80;;;;;;;;;;6248297;22;20012;-81
2023/11/08 02:01:28;;;;;;;6.20;2.30;;;;;;;;;;6247791;22;20026;-81
2023/11/08 02:03:59;;;;;;;9.80;2.63;;;;;;;;;;6223820;22;20485;-82
2023/11/08 02:06:31;;;;;;;8.82;2.80;;;;;;;;;;6248265;22;20039;-82
2023/11/08 02:09:03;;;;;;;7.15;2.35;;;;;;;;;;6252934;22;20019;-82
2023/11/08 02:11:33;;;;;;;9.50;2.90;;;;;;;;;;6248624;22;20012;-82
2023/11/08 02:14:04;;;;;;;9.38;2.85;;;;;;;;;;6223889;22;20350;-82
2023/11/08 02:16:34;;;;;;;7.35;3.10;;;;;;;;;;6275607;22;20022;-82
2023/11/08 02:19:05;;;;;;;9.45;2.88;;;;;;;;;;6286116;22;20018;-82
2023/11/08 02:21:35;;;;;;;8.43;2.80;;;;;;;;;;6259318;22;20015;-82
2023/11/08 02:24:22;;;;;;;8.30;2.67;;;;;;;;;;6275659;22;20016;-81
2023/11/08 02:26:52;;;;;;;13.65;3.47;;;;;;;;;;6248046;22;20027;-82
2023/11/08 02:29:23;;;;;;;13.57;3.50;;;;;;;;;;6246649;22;20027;-82
2023/11/08 02:31:53;;;;;;;10.38;3.40;;;;;;;;;;6248343;22;20023;-82
2023/11/08 02:34:23;;;;;;;8.35;3.13;;;;;;;;;;6276784;22;20012;-82
2023/11/08 02:36:54;;;;;;;9.35;2.88;;;;;;;;;;6276962;22;20020;-82
2023/11/08 02:39:24;;;;;;;10.55;3.60;;;;;;;;;;6276971;22;20023;-82
2023/11/08 02:41:55;;;;;;;8.85;3.50;;;;;;;;;;6248469;22;20020;-82
2023/11/08 02:44:26;;;;;;;13.05;3.58;;;;;;;;;;6287354;22;20446;-81
2023/11/08 02:46:56;;;;;;;8.88;3.63;;;;;;;;;;6286629;22;20019;-82
2023/11/08 02:49:30;;;;;;;9.48;3.05;;;;;;;;;;6276034;22;20015;-81
2023/11/08 02:52:01;;;;;;;9.45;3.40;;;;;;;;;;6286451;22;20014;-82
2023/11/08 02:54:31;;;;;;;7.57;3.47;;;;;;;;;;6276578;22;20023;-81
2023/11/08 02:57:01;;;;;;;6.68;2.90;;;;;;;;;;6276614;22;20045;-82
2023/11/08 02:59:31;;;;;;;10.85;3.33;;;;;;;;;;6276960;22;20015;-82
2023/11/08 03:02:01;;;;;;;9.73;3.35;;;;;;;;;;6277053;22;20023;-81
2023/11/08 03:04:31;;;;;;;7.85;3.47;;;;;;;;;;6276383;22;20027;-82
2023/11/08 03:07:02;;;;;;;9.13;3.15;;;;;;;;;;6249248;22;20020;-81
2023/11/08 03:09:34;;;;;;;9.43;3.40;;;;;;;;;;6278118;22;20018;-81
2023/11/08 03:12:04;;;;;;;7.57;2.80;;;;;;;;;;6248122;22;20319;-81
2023/11/08 03:14:36;;;;;;;6.15;2.45;;;;;;;;;;6248580;22;20019;-82
2023/11/08 03:17:06;;;;;;;9.57;3.60;;;;;;;;;;6286700;22;20011;-81
2023/11/08 03:19:36;;;;;;;14.82;3.45;;;;;;;;;;6275981;22;20023;-81
2023/11/08 03:22:10;;;;;;;8.38;3.13;;;;;;;;;;6287007;22;20016;-81
2023/11/08 03:24:40;;;;;;;13.60;3.40;;;;;;;;;;6287015;22;20012;-82
2023/11/08 03:27:12;;;;;;;12.02;3.92;;;;;;;;;;6276979;22;20021;-82
2023/11/08 03:29:42;;;;;;;8.55;3.00;;;;;;;;;;6248750;22;20019;-82
2023/11/08 03:32:14;;;;;;;9.32;3.10;;;;;;;;;;6276213;22;20350;-81
2023/11/08 03:34:45;;;;;;;10.70;3.13;;;;;;;;;;6224318;22;20026;-81
2023/11/08 03:37:15;;;;;;;8.85;3.67;;;;;;;;;;6276159;22;20011;-81
2023/11/08 03:39:46;;;;;;;12.40;3.30;;;;;;;;;;6276254;22;20339;-81
2023/11/08 03:42:16;;;;;;;13.80;3.50;;;;;;;;;;6250420;22;20058;-81
2023/11/08 03:44:46;;;;;;;9.18;3.20;;;;;;;;;;6250902;22;20019;-81
2023/11/08 03:47:16;;;;;;;7.68;3.00;;;;;;;;;;6275863;22;20331;-81
2023/11/08 03:49:46;;;;;;;13.65;3.40;;;;;;;;;;6276162;22;20469;-81
2023/11/08 03:52:16;;;;;;;8.65;2.60;;;;;;;;;;6275610;22;20015;-81
2023/11/08 03:54:46;;;;;;;11.98;3.47;;;;;;;;;;6248333;22;20186;-81
2023/11/08 03:57:17;;;;;;;6.63;3.15;;;;;;;;;;6248350;22;20019;-80
2023/11/08 03:59:51;;;;;;;8.45;3.13;;;;;;;;;;6252163;22;20327;-81
2023/11/08 04:02:21;;;;;;;7.53;3.03;;;;;;;;;;6288137;22;20347;-81
2023/11/08 04:04:52;;;;;;;7.28;3.13;;;;;;;;;;6288269;22;20016;-81
2023/11/08 04:07:22;;;;;;;6.78;2.70;;;;;;;;;;6277707;22;20015;-81
2023/11/08 04:09:53;;;;;;;8.63;3.00;;;;;;;;;;6252452;22;20445;-81
2023/11/08 04:12:23;;;;;;;8.98;2.92;;;;;;;;;;6250165;22;20027;-81
2023/11/08 04:14:53;;;;;;;12.48;3.00;;;;;;;;;;6278418;22;20019;-81
2023/11/08 04:17:23;;;;;;;12.70;3.42;;;;;;;;;;6278402;22;20026;-81
2023/11/08 04:19:54;;;;;;;9.00;3.38;;;;;;;;;;6277136;22;20020;-81
2023/11/08 04:22:24;;;;;;;10.13;3.75;;;;;;;;;;6287992;22;20011;-81
2023/11/08 04:24:55;;;;;;;10.40;3.47;;;;;;;;;;6278211;22;20020;-81
2023/11/08 04:27:26;;;;;;;8.75;3.53;;;;;;;;;;6288447;22;20012;-81
2023/11/08 04:29:56;;;;;;;7.53;3.00;;;;;;;;;;6278190;22;20012;-82
2023/11/08 04:32:27;;;;;;;7.10;3.33;;;;;;;;;;6288603;22;20296;-81
2023/11/08 04:34:57;;;;;;;12.30;3.28;;;;;;;;;;6249536;22;20020;-81
2023/11/08 04:37:30;;;;;;;9.88;3.60;;;;;;;;;;6277251;22;20024;-82
2023/11/08 04:40:00;;;;;;;7.85;3.08;;;;;;;;;;6288088;22;20431;-82
2023/11/08 04:42:30;;;;;;;9.32;3.35;;;;;;;;;;6276675;22;20451;-81
2023/11/08 04:45:01;;;;;;;9.77;3.13;;;;;;;;;;6277211;22;20019;-82
2023/11/08 04:47:31;;;;;;;10.70;3.25;;;;;;;;;;6277116;22;20466;-81
2023/11/08 04:50:01;;;;;;;9.05;3.55;;;;;;;;;;6277044;22;20020;-81
2023/11/08 04:52:32;;;;;;;9.73;3.60;;;;;;;;;;6276786;22;20016;-80
2023/11/08 04:55:02;;;;;;;12.75;4.40;;;;;;;;;;6287442;22;20016;-81
2023/11/08 04:57:32;;;;;;;11.10;4.07;;;;;;;;;;6277025;22;20015;-81
2023/11/08 05:00:05;;;;;;;11.93;4.40;;;;;;;;;;6250749;22;20042;-81
2023/11/08 05:02:35;;;;;;;13.27;3.97;;;;;;;;;;6287138;22;20012;-81
2023/11/08 05:05:06;;;;;;;9.85;4.18;;;;;;;;;;6248773;22;20450;-81
2023/11/08 05:07:36;;;;;;;10.23;3.47;;;;;;;;;;6276379;22;20012;-81
2023/11/08 05:10:07;;;;;;;8.07;3.90;;;;;;;;;;6287253;22;20012;-81
2023/11/08 05:12:38;;;;;;;10.32;3.38;;;;;;;;;;6249763;22;20335;-80
2023/11/08 05:15:10;;;;;;;6.35;3.40;;;;;;;;;;6261629;22;20016;-81
2023/11/08 05:17:43;;;;;;;11.90;3.80;;;;;;;;;;6276704;22;20318;-81
2023/11/08 05:20:14;;;;;;;9.75;3.60;;;;;;;;;;6287268;22;20035;-81
2023/11/08 05:22:44;;;;;;;11.23;3.83;;;;;;;;;;6287346;22;20451;-81
2023/11/08 05:25:14;;;;;;;11.52;3.45;;;;;;;;;;6276677;22;20012;-81
2023/11/08 05:27:45;;;;;;;12.70;4.20;;;;;;;;;;6277313;22;20015;-81
2023/11/08 05:30:17;;;;;;;9.10;3.53;;;;;;;;;;6277527;22;20023;-81
2023/11/08 05:32:48;;;;;;;6.82;3.40;;;;;;;;;;6260819;22;20018;-81
2023/11/08 05:35:19;;;;;;;9.10;3.33;;;;;;;;;;6287310;22;20015;-81
2023/11/08 05:37:50;;;;;;;6.60;3.03;;;;;;;;;;6276968;22;20453;-80
2023/11/08 05:40:20;;;;;;;8.43;2.88;;;;;;;;;;6287615;22;20007;-81
2023/11/08 05:42:51;;;;;;;6.72;2.90;;;;;;;;;;6276904;22;20015;-81
2023/11/08 05:45:22;;;;;;;7.93;3.25;;;;;;;;;;6287164;22;20007;-81
2023/11/08 05:47:52;;;;;;;13.07;3.92;;;;;;;;;;6277330;22;20012;-80
2023/11/08 05:50:22;;;;;;;19.55;4.30;;;;;;;;;;6276907;22;20431;-80
2023/11/08 05:52:53;;;;;;;9.13;3.97;;;;;;;;;;6277487;22;20016;-80
2023/11/08 05:55:24;;;;;;;12.13;3.90;;;;;;;;;;6286824;22;20011;-81
2023/11/08 05:57:55;;;;;;;7.25;3.53;;;;;;;;;;6276555;22;20016;-80
2023/11/08 06:00:26;;;;;;;8.20;3.17;;;;;;;;;;6249685;22;20015;-82
2023/11/08 06:02:56;;;;;;;9.45;4.00;;;;;;;;;;6281967;22;20023;-80
2023/11/08 06:05:30;;;;;;;7.30;3.15;;;;;;;;;;6289582;22;20408;-81
2023/11/08 06:08:03;;;;;;;9.65;3.40;;;;;;;;;;6297891;22;20016;-80
2023/11/08 06:10:36;;;;;;;9.45;4.10;;;;;;;;;;6293976;22;20008;-79
2023/11/08 06:13:09;;;;;;;9.45;3.55;;;;;;;;;;6289336;22;20008;-81
2023/11/08 06:15:41;;;;;;;13.30;4.35;;;;;;;;;;6287904;22;20012;-82
2023/11/08 06:18:12;;;;;;;8.07;3.20;;;;;;;;;;6287321;22;20011;-80
2023/11/08 06:20:43;;;;;;;11.02;3.47;;;;;;;;;;6286594;22;20012;-80
2023/11/08 06:23:14;;;;;;;8.85;3.20;;;;;;;;;;6276834;22;20015;-81
2023/11/08 06:25:44;;;;;;;10.90;3.70;;;;;;;;;;6277488;22;20011;-80
2023/11/08 06:28:14;;;;;;;9.75;4.10;;;;;;;;;;6276512;22;20043;-81
2023/11/08 06:30:44;;;;;;;9.63;4.35;;;;;;;;;;6276374;22;20343;-80
2023/11/08 06:33:15;;;;;;;10.35;4.28;;;;;;;;;;6276465;22;20016;-80
2023/11/08 06:35:47;;;;;;;11.35;4.22;;;;;;;;;;6249493;22;20015;-81
2023/11/08 06:38:18;;;;;;;12.95;3.90;;;;;;;;;;6286935;22;20334;-82
2023/11/08 06:40:48;;;;;;;11.15;4.05;;;;;;;;;;6248490;22;20020;-81
2023/11/08 06:43:18;;;;;;;7.50;3.42;;;;;;;;;;6275960;22;20015;-81
2023/11/08 06:45:48;;;;;;;14.30;4.30;;;;;;;;;;6249822;22;20411;-81
2023/11/08 06:48:18;;;;;;;9.05;4.22;;;;;;;;;;6250180;22;20018;-82
2023/11/08 06:50:48;;;;;;;16.00;4.32;;;;;;;;;;6276117;22;20015;-80
2023/11/08 06:53:18;;;;;;;11.70;4.30;;;;;;;;;;6276807;22;20027;-80
2023/11/08 06:55:48;;;;;;;12.45;4.80;;;;;;;;;;6276637;22;20342;-80
2023/11/08 06:58:18;;;;;;;14.27;4.82;;;;;;;;;;6277183;22;20011;-80
2023/11/08 07:00:49;;;;;;;16.77;4.80;;;;;;;;;;6276424;22;20015;-80
2023/11/08 07:03:26;;;;;;;15.88;4.57;;;;;;;;;;6286564;22;20015;-81
2023/11/08 07:05:57;;;;;;;12.93;5.15;;;;;;;;;;6249047;22;20030;-81
2023/11/08 07:08:27;;;;;;;12.65;5.57;;;;;;;;;;6276466;22;20030;-81
2023/11/08 07:10:58;;;;;;;15.90;5.55;;;;;;;;;;6276919;22;20424;-81
2023/11/08 07:13:27;;;;;;;10.13;4.05;;;;;;;;;;6276374;22;20016;-81
2023/11/08 07:15:59;;;;;;;9.82;3.58;;;;;;;;;;6275976;22;20027;-81
2023/11/08 07:18:29;;;;;;;8.48;3.50;;;;;;;;;;6260136;22;20007;-81
2023/11/08 07:20:59;;;;;;;9.00;3.90;;;;;;;;;;6250283;22;20323;-81
2023/11/08 07:23:29;;;;;;;9.68;3.67;;;;;;;;;;6276471;22;20015;-80
2023/11/08 07:26:00;;;;;;;8.93;3.38;;;;;;;;;;6286671;22;20019;-81
2023/11/08 07:28:30;;;;;;;7.15;3.33;;;;;;;;;;6276846;22;20027;-81
2023/11/08 07:31:00;;;;;;;7.85;3.50;;;;;;;;;;6276132;22;20012;-81
2023/11/08 07:33:31;;;;;;;7.85;3.13;;;;;;;;;;6276935;22;20020;-81
2023/11/08 07:36:01;;;;;;;9.43;3.90;;;;;;;;;;6278198;22;20335;-81
2023/11/08 07:38:32;;;;;;;9.63;4.13;;;;;;;;;;6277832;22;20446;-81
2023/11/08 07:41:02;;;;;;;10.05;4.95;;;;;;;;;;6288538;22;20347;-82
2023/11/08 07:43:32;;;;;;;9.85;4.28;;;;;;;;;;6278068;22;20335;-81
2023/11/08 07:46:02;;;;;;;10.48;4.22;;;;;;;;;;6277783;22;20019;-82
2023/11/08 07:48:34;;;;;;;10.35;4.05;;;;;;;;;;6277904;22;20016;-81
2023/11/08 07:51:07;;;;;;;8.90;3.70;;;;;;;;;;6288496;22;20012;-81
2023/11/08 07:53:37;;;;;;;8.50;4.15;;;;;;;;;;6261866;22;20447;-81
2023/11/08 07:56:08;;;;;;;10.00;4.22;;;;;;;;;;6278058;22;20015;-80
2023/11/08 07:58:38;;;;;;;16.95;4.97;;;;;;;;;;6288327;22;20015;-81
2023/11/08 08:01:11;;;;;;;15.70;6.63;;;;;;;;;;6278151;22;20008;-81
2023/11/08 08:03:42;;;;;;;11.05;5.10;;;;;;;;;;6287911;22;20447;-81
2023/11/08 08:06:14;;;;;;;14.70;5.00;;;;;;;;;;6288961;22;20015;-81
2023/11/08 08:08:44;;;;;;;9.07;4.65;;;;;;;;;;6283305;22;20012;-81
2023/11/08 08:11:15;;;;;;;13.20;4.25;;;;;;;;;;6277411;22;20019;-80
2023/11/08 08:13:45;;;;;;;11.80;3.92;;;;;;;;;;6278478;22;20016;-81
2023/11/08 08:16:19;;;;;;;9.15;4.25;;;;;;;;;;6278113;22;20016;-80
2023/11/08 08:18:49;;;;;;;8.88;3.55;;;;;;;;;;6288100;22;20008;-81
2023/11/08 08:21:20;;;;;;;12.25;3.80;;;;;;;;;;6277436;22;20022;-81
2023/11/08 08:23:54;;;;;;;9.23;3.92;;;;;;;;;;6262049;22;20011;-80
2023/11/08 08:26:35;;;;;;;9.75;3.65;;;;;;;;;;6287773;22;20023;-81
2023/11/08 08:29:06;;;;;;;8.35;3.40;;;;;;;;;;6277417;22;20012;-81
2023/11/08 08:31:37;;;;;;;7.60;3.33;;;;;;;;;;6287478;22;20012;-80
2023/11/08 08:34:07;;;;;;;10.50;3.70;;;;;;;;;;6276652;22;20018;-81
2023/11/08 08:36:48;;;;;;;12.30;4.25;;;;;;;;;;6288592;22;20018;-81
2023/11/08 08:39:20;;;;;;;11.18;4.57;;;;;;;;;;6261335;22;20007;-82
2023/11/08 08:41:50;;;;;;;10.98;4.65;;;;;;;;;;6287287;22;20011;-81
2023/11/08 08:44:20;;;;;;;11.63;4.03;;;;;;;;;;6276993;22;20008;-81
2023/11/08 08:46:51;;;;;;;9.13;3.92;;;;;;;;;;6250088;22;20030;-81
2023/11/08 08:49:23;;;;;;;11.73;3.92;;;;;;;;;;6287947;22;20439;-81
2023/11/08 08:51:54;;;;;;;10.13;4.30;;;;;;;;;;6288419;22;20031;-81
2023/11/08 08:54:27;;;;;;;8.98;3.67;;;;;;;;;;6250408;22;20040;-82
2023/11/08 08:56:58;;;;;;;9.48;3.42;;;;;;;;;;6277746;22;20454;-81
2023/11/08 08:59:28;;;;;;;10.40;3.97;;;;;;;;;;6287367;22;20015;-82
2023/11/08 09:01:59;;;;;;;7.30;3.60;;;;;;;;;;6285782;22;20012;-81
2023/11/08 09:04:29;;;;;;;11.50;3.45;;;;;;;;;;6277234;22;20434;-80
2023/11/08 09:07:02;;;;;;;12.88;3.90;;;;;;;;;;6276207;22;20011;-81
2023/11/08 09:09:33;;;;;;;8.20;3.67;;;;;;;;;;6250996;22;20008;-81
2023/11/08 09:12:04;;;;;;;15.32;4.45;;;;;;;;;;6286367;22;20022;-80
2023/11/08 09:14:36;;;;;;;11.43;4.00;;;;;;;;;;6286540;22;20320;-80
2023/11/08 09:17:10;;;;;;;16.15;4.07;;;;;;;;;;6247374;22;20023;-80
2023/11/08 09:19:41;;;;;;;9.95;4.45;;;;;;;;;;6287238;22;20015;-80
2023/11/08 09:22:14;;;;;;;11.85;5.57;;;;;;;;;;6275408;22;20019;-80
2023/11/08 09:24:44;;;;;;;12.30;5.32;;;;;;;;;;6261125;22;20012;-80
2023/11/08 09:27:16;;;;;;;12.57;4.60;;;;;;;;;;6285481;22;20023;-80
2023/11/08 09:30:13;;;;;;;15.18;5.07;;;;;;;;;;6285446;22;20023;-81
2023/11/08 09:32:45;;;;;;;13.88;5.00;;;;;;;;;;6275264;22;20023;-80
2023/11/08 09:36:08;;;;;;;10.80;4.15;;;;;;;;;;6222989;22;20019;-81
2023/11/08 09:39:33;;;;;;;12.30;4.50;;;;;;;;;;6121226;23;20026;-80
2023/11/08 09:42:05;;;;;;;11.63;5.47;;;;;;;;;;6097643;23;20018;-79
2023/11/08 09:44:36;;;;;;;22.27;5.25;;;;;;;;;;6273711;22;20023;-79
2023/11/08 09:47:07;;;;;;;18.33;5.00;;;;;;;;;;6285835;22;20438;-80
2023/11/08 09:49:39;;;;;;;17.45;5.32;;;;;;;;;;6249220;22;20061;-79
2023/11/08 09:52:11;;;;;;;14.30;5.28;;;;;;;;;;6259631;22;20012;-79
2023/11/08 09:54:42;;;;;;;12.68;5.35;;;;;;;;;;6285514;22;20008;-79
2023/11/08 09:57:13;;;;;;;15.43;5.40;;;;;;;;;;6275456;22;20018;-79
2023/11/08 09:59:44;;;;;;;13.70;4.75;;;;;;;;;;6285617;22;20012;-79
2023/11/08 10:02:16;;;;;;;10.93;4.75;;;;;;;;;;6285602;22;20335;-79
2023/11/08 10:04:47;;;;;;;10.98;4.28;;;;;;;;;;6286080;22;20299;-79
2023/11/08 10:07:19;;;;;;;13.40;5.20;;;;;;;;;;6285736;22;20007;-80
2023/11/08 10:09:49;;;;;;;14.80;5.20;;;;;;;;;;6275677;22;20026;-80
2023/11/08 10:12:23;;;;;;;11.90;5.20;;;;;;;;;;6274907;22;20023;-80
2023/11/08 10:15:03;;;;;;;15.13;4.95;;;;;;;;;;6286032;22;20339;-80
2023/11/08 10:17:38;;;;;;;18.35;5.57;;;;;;;;;;6285525;22;20458;-79
2023/11/08 10:20:35;;;;;;;13.18;4.93;;;;;;;;;;6274533;22;20015;-80
2023/11/08 10:23:06;;;;;;;15.45;5.22;;;;;;;;;;6285925;22;20008;-80
2023/11/08 10:25:36;;;;;;;18.13;5.13;;;;;;;;;;6275521;22;20355;-80
2023/11/08 10:28:09;;;;;;;11.15;4.43;;;;;;;;;;6275417;22;20015;-80
2023/11/08 10:30:39;;;;;;;13.68;5.55;;;;;;;;;;6284884;22;20031;-83
2023/11/08 10:33:11;;;;;;;14.75;5.60;;;;;;;;;;6223015;22;20024;-80
2023/11/08 10:35:43;;;;;;;14.60;5.20;;;;;;;;;;6285625;22;20011;-80
2023/11/08 10:38:15;;;;;;;10.82;4.72;;;;;;;;;;6286011;22;20011;-80
2023/11/08 10:40:47;;;;;;;15.98;5.43;;;;;;;;;;6285531;22;20011;-80
2023/11/08 10:43:23;;;;;;;16.67;5.30;;;;;;;;;;6285523;22;20007;-80
2023/11/08 10:45:54;;;;;;;16.77;5.13;;;;;;;;;;6247271;22;20335;-81
2023/11/08 10:48:26;;;;;;;13.20;4.47;;;;;;;;;;6247508;22;20347;-81
2023/11/08 10:50:59;;;;;;;9.95;4.85;;;;;;;;;;6285727;22;20016;-81
2023/11/08 10:53:29;;;;;;;13.75;4.15;;;;;;;;;;6285087;22;20015;-82
2023/11/08 10:56:05;;;;;;;12.00;4.35;;;;;;;;;;6274994;22;20446;-80
2023/11/08 10:58:43;;;;;;;9.40;3.80;;;;;;;;;;6285312;22;20015;-79
2023/11/08 11:01:14;;;;;;;9.45;3.90;;;;;;;;;;6287409;22;20018;-79
2023/11/08 11:03:51;;;;;;;7.97;3.95;;;;;;;;;;6286645;22;20014;-80
2023/11/08 11:06:23;;;;;;;11.63;3.65;;;;;;;;;;6285192;22;20027;-79
2023/11/08 11:08:57;;;;;;;9.85;3.50;;;;;;;;;;6281459;22;20015;-80
2023/11/08 11:11:27;;;;;;;10.07;3.03;;;;;;;;;;6288976;22;20012;-80
2023/11/08 11:14:05;;;;;;;;;;;;;;;;;;6289398;22;20386;-80
2023/11/08 11:16:40;;;;;;;13.05;3.60;;;;;;;;;;6288460;22;19915;-80
2023/11/08 11:19:15;;;;;;;14.70;4.20;;;;;;;;;;6288611;22;20007;-80
2023/11/08 11:21:54;;;;;;;10.68;5.05;;;;;;;;;;6289241;22;20008;-79
2023/11/08 11:24:33;;;;;;;;;;;;;;;;;;6288534;22;20018;-79
2023/11/08 11:27:10;;;;;;;13.50;5.22;;;;;;;;;;6276236;22;19915;-78
2023/11/08 11:29:41;;;;;;;11.50;3.42;;;;;;;;;;6249520;22;20451;-79
2023/11/08 11:32:33;;;;;;;9.45;3.97;;;;;;;;;;6262358;22;20008;-79
2023/11/08 11:35:04;;;;;;;12.40;3.17;;;;;;;;;;6279017;22;20008;-79
2023/11/08 11:37:34;;;;;;;9.27;2.95;;;;;;;;;;6288581;22;20008;-79
2023/11/08 11:40:08;;;;;;;9.77;2.67;;;;;;;;;;6252385;22;20011;-79
2023/11/08 11:42:38;;;;;;;8.52;2.72;;;;;;;;;;6289277;22;20012;-79
2023/11/08 11:45:11;;;;;;;8.07;1.95;;;;;;;;;;6288781;22;20177;-79
2023/11/08 11:47:42;;;;;;;11.15;2.85;;;;;;;;;;6258914;22;20012;-80
2023/11/08 11:50:12;;;;;;;11.63;2.85;;;;;;;;;;6265169;22;20015;-81
2023/11/08 11:52:43;;;;;;;9.82;2.90;;;;;;;;;;6263216;22;20003;-80
2023/11/08 11:55:13;;;;;;;9.18;2.70;;;;;;;;;;6290305;22;20016;-80
2023/11/08 11:57:43;;;;;;;9.45;2.90;;;;;;;;;;6257779;22;20003;-80
2023/11/08 12:00:15;;;;;;;11.32;3.22;;;;;;;;;;6288138;22;20014;-79
2023/11/08 12:02:45;;;;;;;7.65;2.55;;;;;;;;;;6288595;22;20454;-79
2023/11/08 12:05:16;;;;;;;10.18;2.85;;;;;;;;;;6279388;22;20023;-82
2023/11/08 12:07:50;;;;;;;10.02;2.92;;;;;;;;;;6285562;22;20328;-82
2023/11/08 12:10:26;;;;;;;8.98;2.97;;;;;;;;;;6288365;22;20011;-82
2023/11/08 12:12:58;;;;;;;12.80;3.55;;;;;;;;;;6288472;22;20038;-83
2023/11/08 12:15:30;;;;;;;9.57;3.00;;;;;;;;;;6288378;22;20015;-82
2023/11/08 12:18:02;;;;;;;9.68;2.72;;;;;;;;;;6289067;22;20007;-82
2023/11/08 12:20:41;;;;;;;5.55;2.58;;;;;;;;;;6287712;22;20008;-82
2023/11/08 12:23:12;;;;;;;10.60;3.75;;;;;;;;;;6288305;22;20016;-83
2023/11/08 12:25:43;;;;;;;9.43;3.25;;;;;;;;;;6277496;22;20026;-83
2023/11/08 12:28:14;;;;;;;8.20;2.90;;;;;;;;;;6288939;22;20012;-83
2023/11/08 12:30:45;;;;;;;8.00;2.78;;;;;;;;;;6277792;22;20016;-83
2023/11/08 12:33:16;;;;;;;8.82;5.22;;;;;;;;;;6287914;22;20331;-82
2023/11/08 12:35:47;;;;;;;63.53;40.88;;;;;;;;;;6277435;22;20012;-82
2023/11/08 12:38:17;;;;;;;21.40;7.43;;;;;;;;;;6288144;22;20023;-82
2023/11/08 12:41:00;;;;;;;21.38;13.57;;;;;;;;;;6276878;22;20012;-83
2023/11/08 12:43:32;;;;;;;11.20;4.63;;;;;;;;;;6287805;22;20015;-81
2023/11/08 12:46:22;;;;;;;17.25;3.10;;;;;;;;;;6277768;22;20012;-80
2023/11/08 12:49:17;;;;;;;240.50;33.78;;;;;;;;;;6288337;22;20007;-81
2023/11/08 12:51:47;;;;;;;25.45;4.47;;;;;;;;;;6287955;22;20019;-80
2023/11/08 12:54:19;;;;;;;9.25;2.90;;;;;;;;;;6278246;22;20012;-80
2023/11/08 12:56:49;;;;;;;16.48;7.57;;;;;;;;;;6287143;22;20011;-78
2023/11/08 12:59:21;;;;;;;26.45;13.40;;;;;;;;;;6277303;22;20019;-77
2023/11/08 13:02:11;;;;;;;17.67;7.15;;;;;;;;;;6287190;22;20014;-78
2023/11/08 13:04:42;;;;;;;11.93;3.80;;;;;;;;;;6277894;22;20347;-76
2023/11/08 13:07:12;;;;;;;12.27;2.53;;;;;;;;;;6277045;22;20020;-77
2023/11/08 13:09:44;;;;;;;8.27;2.75;;;;;;;;;;6278677;22;20019;-78
2023/11/08 13:12:17;;;;;;;8.13;2.72;;;;;;;;;;6278040;22;20437;-78
2023/11/08 13:14:49;;;;;;;12.68;2.88;;;;;;;;;;6287484;22;20015;-77
2023/11/08 13:17:21;;;;;;;9.35;2.55;;;;;;;;;;6287364;22;20012;-77
2023/11/08 13:19:52;;;;;;;6.30;1.70;;;;;;;;;;6285977;22;20016;-78
2023/11/08 13:22:23;;;;;;;6.50;2.25;;;;;;;;;;6286932;22;20011;-76
2023/11/08 13:24:54;;;;;;;9.32;2.63;;;;;;;;;;6287693;22;20015;-78
2023/11/08 13:27:24;;;;;;;6.28;1.73;;;;;;;;;;6276760;22;20019;-77
2023/11/08 13:29:57;;;;;;;10.13;2.13;;;;;;;;;;6287387;22;20012;-77
2023/11/08 13:32:29;;;;;;;5.25;1.60;;;;;;;;;;6249473;22;20012;-78
2023/11/08 13:35:00;;;;;;;4.60;1.95;;;;;;;;;;6248004;22;20015;-80
2023/11/08 13:37:30;;;;;;;7.93;1.67;;;;;;;;;;6275400;22;20443;-81
2023/11/08 13:40:00;;;;;;;4.47;2.45;;;;;;;;;;6259746;22;20035;-82
2023/11/08 13:42:32;;;;;;;7.30;1.77;;;;;;;;;;6274021;22;20023;-81
2023/11/08 13:45:03;;;;;;;3.83;1.90;;;;;;;;;;6286239;22;20019;-81
2023/11/08 13:47:36;;;;;;;8.02;1.83;;;;;;;;;;6285779;22;20035;-83
2023/11/08 13:50:08;;;;;;;7.53;2.00;;;;;;;;;;6286092;22;20015;-82
2023/11/08 13:52:39;;;;;;;5.35;1.35;;;;;;;;;;6259552;22;20015;-80
2023/11/08 13:55:11;;;;;;;4.80;1.80;;;;;;;;;;6285859;22;20022;-81
2023/11/08 13:57:43;;;;;;;5.22;1.70;;;;;;;;;;6286164;22;20014;-82
2023/11/08 14:00:14;;;;;;;6.25;1.63;;;;;;;;;;6285905;22;20020;-83
2023/11/08 14:02:47;;;;;;;6.85;1.92;;;;;;;;;;6275397;22;20014;-82
2023/11/08 14:05:20;;;;;;;5.00;1.67;;;;;;;;;;6286088;22;20022;-84
2023/11/08 14:07:50;;;;;;;4.80;1.63;;;;;;;;;;6275217;22;20011;-82
2023/11/08 14:10:21;;;;;;;3.95;1.77;;;;;;;;;;6285203;22;20343;-83
2023/11/08 14:12:51;;;;;;;4.28;1.83;;;;;;;;;;6247810;22;20015;-81
2023/11/08 14:15:25;;;;;;;8.30;1.60;;;;;;;;;;6250292;22;20012;-82
2023/11/08 14:17:59;;;;;;;5.30;1.65;;;;;;;;;;6276368;22;20019;-81
2023/11/08 14:20:30;;;;;;;5.25;1.70;;;;;;;;;;6286165;22;20022;-83
2023/11/08 14:23:00;;;;;;;8.80;1.75;;;;;;;;;;6275356;22;20011;-83
2023/11/08 14:25:31;;;;;;;5.25;1.75;;;;;;;;;;6274561;22;20012;-83
2023/11/08 14:28:02;;;;;;;7.32;1.80;;;;;;;;;;6283525;22;20007;-83
2023/11/08 14:30:34;;;;;;;6.78;1.52;;;;;;;;;;6274438;22;20008;-82
2023/11/08 14:33:04;;;;;;;3.28;1.38;;;;;;;;;;6285287;22;20012;-82
2023/11/08 14:35:34;;;;;;;5.53;1.58;;;;;;;;;;6247409;22;20020;-84
2023/11/08 14:38:05;;;;;;;5.13;1.65;;;;;;;;;;6248553;22;20024;-81
2023/11/08 14:40:40;;;;;;;3.83;2.00;;;;;;;;;;6285093;22;20026;-82
2023/11/08 14:43:09;;;;;;;;;;;;;;;;;;6285328;22;20011;-82
2023/11/08 14:45:39;;;;;;;5.78;1.88;;;;;;;;;;6247136;22;19915;-82
2023/11/08 14:48:10;;;;;;;7.45;1.60;;;;;;;;;;6274163;22;20012;-83
2023/11/08 14:50:41;;;;;;;5.82;1.42;;;;;;;;;;6247859;22;20011;-82
2023/11/08 14:53:12;;;;;;;5.25;2.05;;;;;;;;;;6275103;22;20023;-81
2023/11/08 14:55:42;;;;;;;5.78;1.58;;;;;;;;;;6285061;22;20447;-83
2023/11/08 14:58:13;;;;;;;5.13;1.52;;;;;;;;;;6274373;22;20458;-83
2023/11/08 15:00:44;;;;;;;3.55;1.75;;;;;;;;;;6275214;22;20031;-83
2023/11/08 15:03:15;;;;;;;8.48;1.85;;;;;;;;;;6284745;22;20015;-85
2023/11/08 15:05:46;;;;;;;6.38;1.85;;;;;;;;;;6223570;22;20024;-84
2023/11/08 15:08:17;;;;;;;5.15;1.80;;;;;;;;;;6281614;22;20007;-84
2023/11/08 15:11:08;;;;;;;4.07;1.85;;;;;;;;;;6275687;22;20015;-86
2023/11/08 15:13:40;;;;;;;5.72;1.80;;;;;;;;;;6285722;22;20008;-86
2023/11/08 15:16:10;;;;;;;3.45;1.67;;;;;;;;;;6248482;22;20019;-86
2023/11/08 15:19:36;;;;;;;4.88;1.65;;;;;;;;;;6274991;22;20016;-86
2023/11/08 15:22:15;;;;;;;4.22;1.42;;;;;;;;;;6195555;22;20012;-86